createdAt,value
2023-03-21T00:00:55.840Z,18.30
2023-03-21T00:03:24.107Z,18.37
2023-03-21T00:05:53.766Z,18.20
2023-03-21T00:08:25.989Z,17.80
2023-03-21T00:10:58.644Z,18.70
2023-03-21T00:13:28.318Z,18.27
2023-03-21T00:16:18.103Z,18.60
2023-03-21T00:18:46.400Z,19.20
2023-03-21T00:21:39.519Z,18.93
2023-03-21T00:24:07.990Z,17.47
2023-03-21T00:26:36.315Z,18.10
2023-03-21T00:29:04.377Z,18.13
2023-03-21T00:31:32.381Z,17.67
2023-03-21T00:34:01.109Z,17.80
2023-03-21T00:36:29.211Z,16.93
2023-03-21T00:38:57.229Z,16.67
2023-03-21T00:41:41.563Z,16.07
2023-03-21T00:44:11.602Z,17.17
2023-03-21T00:46:48.973Z,17.60
2023-03-21T00:49:22.358Z,16.20
2023-03-21T00:51:51.672Z,17.20
2023-03-21T00:54:19.934Z,15.90
2023-03-21T00:56:49.514Z,17.50
2023-03-21T00:59:17.783Z,17.10
2023-03-21T01:01:46.619Z,16.67
2023-03-21T01:04:16.786Z,16.73
2023-03-21T01:06:45.569Z,16.70
2023-03-21T01:09:16.670Z,15.53
2023-03-21T01:11:45.683Z,17.47
2023-03-21T01:14:22.928Z,16.60
2023-03-21T01:16:53.432Z,16.47
2023-03-21T01:19:29.337Z,15.80
2023-03-21T01:21:59.524Z,15.73
2023-03-21T01:24:27.780Z,17.97
2023-03-21T01:26:55.799Z,16.47
2023-03-21T01:29:25.151Z,16.87
2023-03-21T01:31:53.199Z,16.30
2023-03-21T01:34:21.278Z,16.87
2023-03-21T01:36:49.595Z,17.43
2023-03-21T01:39:17.601Z,17.67
2023-03-21T01:41:45.761Z,17.43
2023-03-21T01:44:18.718Z,18.83
2023-03-21T01:49:41.633Z,17.53
2023-03-21T01:52:23.614Z,17.40
2023-03-21T01:54:59.180Z,16.00
2023-03-21T01:57:40.432Z,17.30
2023-03-21T02:00:13.113Z,15.90
2023-03-21T02:02:52.637Z,15.27
2023-03-21T02:05:25.424Z,16.20
2023-03-21T02:07:53.755Z,15.97
2023-03-21T02:10:22.553Z,15.57
2023-03-21T02:12:51.120Z,15.60
2023-03-21T02:15:19.443Z,16.00
2023-03-21T02:17:54.201Z,16.00
2023-03-21T02:20:52.267Z,16.60
2023-03-21T02:23:57.807Z,14.80
2023-03-21T02:27:04.933Z,15.27
2023-03-21T02:30:29.418Z,15.97
2023-03-21T02:33:29.116Z,15.90
2023-03-21T02:36:28.328Z,15.77
2023-03-21T02:39:07.935Z,16.67
2023-03-21T02:41:46.728Z,16.77
2023-03-21T02:44:21.980Z,15.47
2023-03-21T02:47:05.600Z,16.87
2023-03-21T02:49:42.921Z,16.70
2023-03-21T02:52:23.118Z,16.03
2023-03-21T02:55:03.343Z,17.93
2023-03-21T02:57:42.181Z,18.00
2023-03-21T03:00:17.971Z,17.50
2023-03-21T03:02:47.554Z,16.03
2023-03-21T03:05:21.864Z,17.37
2023-03-21T03:08:05.736Z,16.43
2023-03-21T03:10:44.980Z,17.37
2023-03-21T03:13:22.569Z,16.73
2023-03-21T03:16:02.041Z,17.13
2023-03-21T03:18:40.304Z,17.17
2023-03-21T03:21:14.809Z,18.43
2023-03-21T03:23:46.297Z,16.87
2023-03-21T03:26:18.845Z,17.20
2023-03-21T03:28:50.863Z,17.10
2023-03-21T03:31:25.962Z,17.33
2023-03-21T03:33:56.588Z,16.40
2023-03-21T03:36:32.423Z,17.20
2023-03-21T03:39:04.389Z,17.90
2023-03-21T03:42:02.987Z,17.53
2023-03-21T03:44:26.053Z,18.00
2023-03-21T03:46:59.273Z,17.67
2023-03-21T03:49:32.530Z,16.97
2023-03-21T03:52:05.405Z,18.27
2023-03-21T03:54:38.076Z,17.80
2023-03-21T03:57:08.918Z,17.93
2023-03-21T03:59:38.382Z,17.63
2023-03-21T04:02:06.755Z,17.40
2023-03-21T04:04:35.155Z,17.33
2023-03-21T04:07:03.714Z,16.80
2023-03-21T04:09:43.567Z,17.87
2023-03-21T04:12:13.888Z,17.07
2023-03-21T04:14:47.202Z,17.67
2023-03-21T04:17:16.522Z,17.17
2023-03-21T04:19:45.527Z,16.73
2023-03-21T04:22:14.139Z,17.63
2023-03-21T04:24:42.702Z,18.60
2023-03-21T04:27:10.873Z,16.57
2023-03-21T04:29:40.396Z,16.77
2023-03-21T04:32:16.192Z,16.43
2023-03-21T04:34:50.259Z,16.77
2023-03-21T04:37:18.989Z,16.43
2023-03-21T04:39:47.758Z,16.40
2023-03-21T04:42:16.313Z,16.77
2023-03-21T04:44:46.071Z,17.47
2023-03-21T04:47:15.943Z,15.97
2023-03-21T04:49:44.228Z,16.43
2023-03-21T04:52:12.270Z,16.50
2023-03-21T04:54:40.330Z,16.73
2023-03-21T04:57:08.412Z,16.03
2023-03-21T04:59:37.240Z,16.13
2023-03-21T05:02:06.740Z,16.20
2023-03-21T05:04:34.794Z,14.53
2023-03-21T05:07:02.832Z,15.03
2023-03-21T05:09:30.873Z,15.17
2023-03-21T05:11:58.963Z,14.93
2023-03-21T05:14:28.387Z,16.87
2023-03-21T05:16:57.473Z,16.03
2023-03-21T05:19:34.754Z,14.43
2023-03-21T05:22:04.661Z,15.13
2023-03-21T05:24:33.915Z,14.80
2023-03-21T05:27:03.222Z,15.07
2023-03-21T05:29:32.461Z,14.50
2023-03-21T05:32:02.073Z,14.20
2023-03-21T05:34:32.104Z,15.00
2023-03-21T05:37:00.497Z,15.43
2023-03-21T05:39:28.665Z,15.80
2023-03-21T05:41:56.716Z,14.83
2023-03-21T05:44:24.710Z,15.83
2023-03-21T05:46:52.753Z,16.43
2023-03-21T05:49:22.675Z,15.23
2023-03-21T05:51:52.518Z,15.93
2023-03-21T05:54:20.518Z,14.97
2023-03-21T05:56:48.520Z,16.27
2023-03-21T05:59:17.687Z,15.77
2023-03-21T06:01:45.701Z,15.37
2023-03-21T06:04:13.797Z,15.57
2023-03-21T06:06:41.857Z,15.97
2023-03-21T06:09:11.542Z,15.57
2023-03-21T06:11:42.096Z,16.10
2023-03-21T06:14:10.151Z,16.77
2023-03-21T06:16:38.157Z,16.90
2023-03-21T06:19:06.176Z,15.17
2023-03-21T06:21:41.827Z,16.63
2023-03-21T06:24:11.486Z,16.47
2023-03-21T06:26:39.617Z,16.57
2023-03-21T06:29:07.634Z,16.60
2023-03-21T06:31:35.770Z,17.53
2023-03-21T06:34:03.902Z,16.47
2023-03-21T06:39:12.125Z,17.90
2023-03-21T06:41:40.423Z,17.50
2023-03-21T06:44:08.879Z,17.73
2023-03-21T06:46:36.917Z,17.47
2023-03-21T06:49:05.277Z,17.97
2023-03-21T06:51:33.478Z,17.40
2023-03-21T06:54:01.859Z,19.60
2023-03-21T06:56:31.238Z,17.43
2023-03-21T06:58:59.362Z,18.90
2023-03-21T07:01:27.753Z,17.97
2023-03-21T07:03:57.564Z,18.53
2023-03-21T07:06:27.414Z,17.37
2023-03-21T07:08:56.794Z,18.13
2023-03-21T07:11:25.272Z,19.23
2023-03-21T07:13:54.631Z,17.43
2023-03-21T07:16:22.858Z,17.57
2023-03-21T07:18:50.916Z,17.83
2023-03-21T07:21:19.254Z,17.37
2023-03-21T07:23:47.389Z,17.37
2023-03-21T07:26:16.112Z,17.87
2023-03-21T07:28:44.118Z,17.90
2023-03-21T07:31:17.071Z,17.50
2023-03-21T07:33:45.435Z,18.77
2023-03-21T07:36:15.967Z,18.47
2023-03-21T07:38:44.240Z,17.37
2023-03-21T07:41:12.456Z,19.17
2023-03-21T07:43:40.811Z,19.23
2023-03-21T07:46:09.009Z,18.90
2023-03-21T07:48:38.399Z,20.33
2023-03-21T07:51:06.728Z,18.80
2023-03-21T07:53:35.045Z,17.77
2023-03-21T07:56:04.098Z,17.90
2023-03-21T07:58:34.228Z,19.40
2023-03-21T08:01:02.326Z,18.90
2023-03-21T08:03:31.499Z,17.77
2023-03-21T08:06:02.138Z,18.80
2023-03-21T08:08:31.450Z,21.30
2023-03-21T08:10:59.901Z,21.30
2023-03-21T08:13:27.957Z,21.17
2023-03-21T08:15:55.990Z,23.07
2023-03-21T08:18:24.004Z,20.57
2023-03-21T08:20:53.572Z,21.47
2023-03-21T08:23:23.656Z,21.07
2023-03-21T08:25:53.068Z,19.37
2023-03-21T08:28:21.546Z,20.53
2023-03-21T08:30:49.999Z,20.70
2023-03-21T08:33:18.827Z,19.67
2023-03-21T08:35:47.264Z,19.33
2023-03-21T08:38:15.525Z,19.93
2023-03-21T08:40:44.900Z,19.77
2023-03-21T08:43:14.858Z,22.43
2023-03-21T08:45:43.156Z,18.37
2023-03-21T08:48:11.203Z,18.53
2023-03-21T08:50:39.581Z,18.40
2023-03-21T08:53:07.586Z,17.23
2023-03-21T08:55:35.893Z,17.63
2023-03-21T08:58:07.172Z,17.87
2023-03-21T09:00:35.195Z,18.50
2023-03-21T09:03:04.918Z,16.27
2023-03-21T09:05:33.529Z,18.77
2023-03-21T09:08:03.413Z,16.70
2023-03-21T09:10:31.494Z,16.30
2023-03-21T09:12:59.489Z,16.47
2023-03-21T09:15:29.862Z,14.93
2023-03-21T09:18:14.908Z,16.30
2023-03-21T09:20:43.866Z,16.07
2023-03-21T09:23:18.238Z,17.20
2023-03-21T09:25:46.847Z,15.87
2023-03-21T09:28:15.227Z,15.90
2023-03-21T09:30:44.663Z,15.23
2023-03-21T09:33:25.427Z,16.57
2023-03-21T09:35:53.469Z,15.57
2023-03-21T09:38:22.028Z,15.50
2023-03-21T09:41:03.505Z,15.67
2023-03-21T09:43:40.431Z,16.13
2023-03-21T09:46:15.343Z,14.30
2023-03-21T09:48:57.294Z,13.67
2023-03-21T09:51:29.364Z,14.60
2023-03-21T09:54:02.118Z,14.33
2023-03-21T09:56:30.464Z,14.53
2023-03-21T09:59:01.405Z,13.47
2023-03-21T10:01:34.365Z,14.83
2023-03-21T10:04:05.522Z,13.70
2023-03-21T10:06:35.822Z,13.90
2023-03-21T10:09:07.323Z,13.10
2023-03-21T10:11:43.091Z,12.37
2023-03-21T10:14:19.559Z,13.33
2023-03-21T10:16:52.881Z,13.97
2023-03-21T10:19:21.618Z,12.50
2023-03-21T10:22:00.693Z,12.37
2023-03-21T10:24:30.865Z,12.03
2023-03-21T10:26:59.238Z,10.90
2023-03-21T10:29:31.668Z,11.57
2023-03-21T10:32:01.870Z,12.63
2023-03-21T10:34:33.922Z,12.17
2023-03-21T10:37:03.772Z,11.57
2023-03-21T10:39:36.556Z,10.83
2023-03-21T10:42:05.186Z,11.67
2023-03-21T10:44:34.674Z,11.63
2023-03-21T10:47:08.810Z,11.83
2023-03-21T10:50:06.311Z,10.30
2023-03-21T10:52:30.630Z,10.80
2023-03-21T10:55:09.852Z,11.40
2023-03-21T10:57:38.860Z,10.70
2023-03-21T11:00:17.055Z,9.67
2023-03-21T11:02:50.009Z,10.40
2023-03-21T11:05:24.066Z,9.73
2023-03-21T11:08:00.912Z,9.50
2023-03-21T11:10:31.380Z,9.20
2023-03-21T11:13:04.518Z,9.87
2023-03-21T11:15:39.287Z,9.13
2023-03-21T11:18:19.597Z,10.37
2023-03-21T11:20:52.587Z,10.60
2023-03-21T11:23:21.485Z,10.17
2023-03-21T11:25:51.098Z,10.20
2023-03-21T11:28:24.575Z,11.00
2023-03-21T11:30:55.719Z,9.87
2023-03-21T11:33:29.026Z,10.97
2023-03-21T11:36:05.167Z,10.63
2023-03-21T11:38:36.996Z,11.03
2023-03-21T11:41:06.638Z,11.03
2023-03-21T11:43:37.765Z,11.30
2023-03-21T11:46:10.352Z,11.87
2023-03-21T11:48:42.927Z,14.33
2023-03-21T11:51:22.437Z,12.77
2023-03-21T11:53:58.852Z,12.47
2023-03-21T11:56:30.388Z,12.93
2023-03-21T11:59:19.758Z,14.07
2023-03-21T12:02:00.856Z,13.27
2023-03-21T12:04:41.808Z,12.07
2023-03-21T12:07:41.504Z,13.10
2023-03-21T12:10:33.964Z,12.70
2023-03-21T12:13:11.410Z,11.93
2023-03-21T12:15:49.746Z,12.03
2023-03-21T12:18:36.381Z,11.90
2023-03-21T12:21:11.577Z,12.07
2023-03-21T12:23:59.796Z,13.03
2023-03-21T12:26:30.693Z,12.07
2023-03-21T12:29:30.081Z,13.43
2023-03-21T12:32:13.926Z,12.70
2023-03-21T12:35:00.813Z,12.93
2023-03-21T12:37:38.404Z,12.53
2023-03-21T12:40:18.028Z,12.73
2023-03-21T12:43:01.149Z,13.27
2023-03-21T12:45:45.703Z,13.07
2023-03-21T12:48:22.254Z,13.77
2023-03-21T12:50:55.470Z,13.33
2023-03-21T12:53:54.562Z,14.33
2023-03-21T12:56:28.184Z,12.83
2023-03-21T12:59:02.047Z,12.83
2023-03-21T13:01:31.435Z,13.57
2023-03-21T13:04:20.350Z,14.13
2023-03-21T13:06:51.862Z,14.57
2023-03-21T13:09:37.743Z,14.70
2023-03-21T13:12:18.635Z,14.50
2023-03-21T13:15:07.819Z,13.23
2023-03-21T13:17:45.017Z,13.13
2023-03-21T13:20:21.520Z,14.33
2023-03-21T13:22:49.586Z,13.80
2023-03-21T13:25:21.735Z,13.60
2023-03-21T13:27:54.402Z,14.33
2023-03-21T13:30:26.409Z,14.40
2023-03-21T13:33:05.676Z,14.80
2023-03-21T13:35:38.472Z,14.13
2023-03-21T13:38:12.928Z,13.73
2023-03-21T13:40:47.208Z,14.60
2023-03-21T13:43:34.053Z,14.50
2023-03-21T13:46:08.540Z,14.50
2023-03-21T13:48:57.885Z,13.53
2023-03-21T13:51:47.858Z,13.50
2023-03-21T13:54:24.193Z,15.17
2023-03-21T13:56:57.769Z,13.97
2023-03-21T13:59:42.898Z,13.73
2023-03-21T14:02:31.344Z,11.73
2023-03-21T14:05:06.877Z,12.43
2023-03-21T14:07:38.034Z,12.03
2023-03-21T14:10:09.952Z,12.60
2023-03-21T14:12:43.480Z,13.00
2023-03-21T14:15:19.779Z,12.20
2023-03-21T14:17:53.898Z,12.27
2023-03-21T14:20:23.550Z,11.70
2023-03-21T14:22:51.547Z,11.43
2023-03-21T14:25:21.693Z,12.63
2023-03-21T14:27:54.069Z,10.83
2023-03-21T14:30:25.523Z,11.50
2023-03-21T14:32:57.174Z,9.30
2023-03-21T14:35:26.566Z,9.27
2023-03-21T14:37:54.547Z,9.77
2023-03-21T14:40:25.251Z,9.50
2023-03-21T14:42:55.243Z,9.63
2023-03-21T14:45:26.929Z,10.17
2023-03-21T14:48:00.575Z,9.20
2023-03-21T14:50:36.057Z,8.77
2023-03-21T14:53:04.305Z,9.17
2023-03-21T14:55:32.574Z,9.60
2023-03-21T14:58:02.159Z,10.00
2023-03-21T15:00:32.007Z,9.10
2023-03-21T15:03:01.177Z,10.10
2023-03-21T15:05:33.079Z,8.97
2023-03-21T15:08:02.542Z,9.33
2023-03-21T15:10:32.331Z,9.27
2023-03-21T15:13:04.035Z,9.03
2023-03-21T15:15:33.996Z,9.07
2023-03-21T15:18:06.430Z,9.40
2023-03-21T15:20:37.860Z,8.50
2023-03-21T15:23:10.671Z,8.43
2023-03-21T15:25:39.489Z,8.90
2023-03-21T15:28:11.156Z,9.73
2023-03-21T15:30:39.408Z,9.20
2023-03-21T15:33:10.840Z,8.80
2023-03-21T15:35:41.832Z,8.83
2023-03-21T15:38:23.580Z,10.23
2023-03-21T15:40:52.097Z,8.20
2023-03-21T15:43:21.920Z,8.10
2023-03-21T15:45:54.189Z,8.30
2023-03-21T15:48:26.035Z,8.40
2023-03-21T15:51:00.907Z,8.43
2023-03-21T15:53:32.474Z,8.73
2023-03-21T15:56:02.067Z,9.27
2023-03-21T15:58:36.058Z,9.50
2023-03-21T16:01:07.307Z,10.83
2023-03-21T16:03:38.036Z,9.27
2023-03-21T16:06:11.032Z,11.77
2023-03-21T16:08:44.637Z,9.67
2023-03-21T16:11:18.171Z,11.07
2023-03-21T16:13:47.590Z,8.20
2023-03-21T16:16:18.653Z,7.60
2023-03-21T16:18:46.862Z,7.30
2023-03-21T16:21:16.881Z,7.87
2023-03-21T16:23:45.174Z,6.67
2023-03-21T16:26:16.432Z,7.93
2023-03-21T16:28:44.889Z,7.73
2023-03-21T16:31:16.530Z,8.03
2023-03-21T16:33:44.914Z,7.63
2023-03-21T16:36:15.513Z,9.13
2023-03-21T16:38:43.569Z,7.80
2023-03-21T16:41:12.234Z,7.97
2023-03-21T16:43:43.175Z,8.43
2023-03-21T16:46:15.629Z,7.97
2023-03-21T16:48:44.691Z,7.67
2023-03-21T16:51:16.641Z,8.03
2023-03-21T16:53:45.262Z,7.03
2023-03-21T16:56:16.317Z,7.13
2023-03-21T16:58:44.627Z,8.43
2023-03-21T17:01:15.914Z,6.67
2023-03-21T17:03:44.156Z,7.43
2023-03-21T17:06:16.431Z,7.40
2023-03-21T17:08:45.017Z,6.97
2023-03-21T17:11:16.336Z,7.37
2023-03-21T17:13:44.787Z,7.67
2023-03-21T17:16:15.238Z,6.93
2023-03-21T17:18:43.589Z,7.30
2023-03-21T17:21:14.760Z,7.00
2023-03-21T17:23:42.796Z,6.87
2023-03-21T17:26:13.764Z,7.13
2023-03-21T17:28:42.513Z,6.67
2023-03-21T17:31:15.825Z,6.80
2023-03-21T17:33:44.219Z,7.47
2023-03-21T17:36:15.686Z,6.80
2023-03-21T17:38:45.844Z,6.47
2023-03-21T17:41:14.838Z,6.53
2023-03-21T17:43:42.812Z,6.47
2023-03-21T17:46:15.715Z,7.37
2023-03-21T17:48:44.959Z,7.00
2023-03-21T17:51:16.048Z,7.40
2023-03-21T17:53:44.456Z,7.80
2023-03-21T17:56:15.645Z,6.83
2023-03-21T17:58:43.785Z,8.23
2023-03-21T18:01:11.815Z,7.70
2023-03-21T18:03:41.166Z,8.37
2023-03-21T18:06:17.104Z,8.33
2023-03-21T18:08:45.774Z,8.17
2023-03-21T18:11:15.412Z,7.70
2023-03-21T18:13:44.668Z,7.97
2023-03-21T18:16:15.485Z,7.50
2023-03-21T18:18:46.507Z,7.87
2023-03-21T18:21:18.193Z,7.20
2023-03-21T18:23:48.033Z,6.73
2023-03-21T18:26:18.219Z,7.03
2023-03-21T18:28:46.770Z,7.03
2023-03-21T18:31:20.164Z,7.00
2023-03-21T18:33:51.231Z,7.17
2023-03-21T18:36:25.408Z,7.13
2023-03-21T18:38:56.855Z,7.33
2023-03-21T18:41:25.204Z,7.67
2023-03-21T18:44:02.319Z,6.90
2023-03-21T18:46:35.354Z,7.30
2023-03-21T18:49:42.207Z,8.90
2023-03-21T18:51:53.235Z,7.80
2023-03-21T18:54:21.382Z,8.00
2023-03-21T18:57:33.863Z,6.80
2023-03-21T18:59:39.976Z,7.90
2023-03-21T19:02:08.557Z,7.63
2023-03-21T19:04:38.329Z,7.90
2023-03-21T19:07:07.539Z,7.00
2023-03-21T19:09:58.102Z,7.77
2023-03-21T19:12:25.412Z,8.57
2023-03-21T19:14:53.394Z,9.20
2023-03-21T19:20:14.032Z,8.67
2023-03-21T19:22:42.537Z,8.30
2023-03-21T19:25:11.852Z,8.37
2023-03-21T19:27:40.361Z,8.93
2023-03-21T19:30:15.046Z,9.20
2023-03-21T19:32:43.869Z,9.07
2023-03-21T19:35:14.248Z,9.50
2023-03-21T19:37:42.337Z,9.20
2023-03-21T19:40:11.198Z,9.10
2023-03-21T19:42:40.257Z,9.53
2023-03-21T19:45:09.764Z,9.47
2023-03-21T19:47:37.721Z,9.20
2023-03-21T19:52:55.842Z,9.33
2023-03-21T19:55:23.851Z,11.30
2023-03-21T19:57:53.527Z,9.60
2023-03-21T20:00:22.287Z,9.67
2023-03-21T20:02:51.598Z,10.30
2023-03-21T20:05:22.350Z,9.67
2023-03-21T20:07:50.398Z,10.17
2023-03-21T20:10:20.400Z,10.23
2023-03-21T20:12:48.395Z,11.20
2023-03-21T20:15:19.529Z,10.80
2023-03-21T20:17:50.425Z,10.40
2023-03-21T20:20:19.267Z,11.33
2023-03-21T20:23:08.038Z,11.17
2023-03-21T20:25:40.425Z,11.63
2023-03-21T20:28:22.565Z,10.70
2023-03-21T20:30:56.702Z,11.37
2023-03-21T20:33:25.210Z,12.17
2023-03-21T20:36:37.396Z,11.03
2023-03-21T20:38:47.205Z,10.67
2023-03-21T20:41:16.933Z,11.17
2023-03-21T20:44:31.542Z,10.30
2023-03-21T20:46:32.950Z,11.20
2023-03-21T20:49:00.971Z,11.23
2023-03-21T20:54:17.825Z,10.23
2023-03-21T20:56:47.822Z,10.20
2023-03-21T20:59:25.564Z,10.77
2023-03-21T21:01:55.027Z,11.17
2023-03-21T21:04:34.297Z,9.80
2023-03-21T21:07:16.019Z,10.87
2023-03-21T21:09:44.693Z,10.87
2023-03-21T21:12:15.177Z,10.53
2023-03-21T21:14:44.125Z,9.73
2023-03-21T21:20:01.597Z,11.07
2023-03-21T21:22:29.654Z,11.47
2023-03-21T21:24:57.632Z,9.97
2023-03-21T21:27:27.040Z,10.60
2023-03-21T21:29:55.035Z,10.50
2023-03-21T21:32:23.004Z,11.40
2023-03-21T21:34:51.065Z,11.73
2023-03-21T21:37:19.042Z,11.33
2023-03-21T21:39:46.994Z,10.97
2023-03-21T21:42:15.182Z,10.57
2023-03-21T21:44:46.721Z,10.53
2023-03-21T21:47:15.572Z,10.80
2023-03-21T21:49:43.557Z,10.93
2023-03-21T21:52:13.664Z,11.40
2023-03-21T21:54:45.728Z,10.33
2023-03-21T21:57:14.611Z,11.07
2023-03-21T21:59:43.938Z,10.57
2023-03-21T22:02:16.682Z,10.93
2023-03-21T22:04:44.886Z,10.73
2023-03-21T22:07:14.606Z,10.67
2023-03-21T22:09:43.103Z,9.30
2023-03-21T22:12:11.095Z,10.77
2023-03-21T22:14:39.124Z,9.87
2023-03-21T22:17:08.558Z,9.50
2023-03-21T22:19:37.821Z,9.93
2023-03-21T22:22:07.710Z,10.30
2023-03-21T22:24:37.347Z,9.17
2023-03-21T22:27:05.544Z,9.27
2023-03-21T22:29:33.621Z,8.60
2023-03-21T22:32:01.735Z,8.90
2023-03-21T22:34:31.163Z,8.53
2023-03-21T22:36:59.985Z,8.87
2023-03-21T22:39:28.768Z,8.80
2023-03-21T22:42:00.834Z,9.53
2023-03-21T22:44:34.327Z,9.07
2023-03-21T22:47:02.901Z,7.97
2023-03-21T22:49:32.906Z,7.73
2023-03-21T22:52:01.268Z,8.30
2023-03-21T22:54:29.237Z,8.97
2023-03-21T22:56:57.948Z,8.60
2023-03-21T22:59:26.197Z,8.60
2023-03-21T23:01:54.196Z,8.03
2023-03-21T23:04:22.224Z,8.10
2023-03-21T23:06:51.670Z,7.90
2023-03-21T23:09:19.832Z,7.90
2023-03-21T23:11:49.487Z,7.70
2023-03-21T23:14:20.097Z,8.53
2023-03-21T23:16:49.565Z,8.57
2023-03-21T23:19:19.965Z,8.67
2023-03-21T23:21:48.361Z,8.53
2023-03-21T23:24:17.740Z,7.37
2023-03-21T23:26:45.777Z,7.30
2023-03-21T23:29:14.046Z,7.03
2023-03-21T23:31:42.039Z,7.23
2023-03-21T23:34:10.666Z,7.73
2023-03-21T23:36:39.686Z,6.93
2023-03-21T23:39:08.011Z,7.57
2023-03-21T23:41:37.448Z,7.43
2023-03-21T23:44:05.980Z,7.70
2023-03-21T23:46:34.066Z,7.20
2023-03-21T23:49:02.102Z,7.30
2023-03-21T23:51:30.127Z,7.07
2023-03-21T23:53:58.596Z,7.30
2023-03-21T23:56:28.751Z,6.50
2023-03-21T23:58:58.271Z,6.60
